Weather at Ottawa / Carp Airport

Public forecast

Using degrees Celsius for public forecast. Weather courtesy of forecast.io.

Closest aviation weather report (METAR) to Ottawa / Carp Airport

Report is more than 2 hours old.

Closest report is Ottawa Macdonald-Cartier International Airport, 14.9 nm (27.6 km) E.

2024/06/24 21:00 (retrieved 3 hours ago)

CYOW 242100Z 33008KT 15SM FEW100 FEW150 FEW220 SCT250 26/13 A2977 RMK AC1AC1CI1CI2 AC TR AC TR SLP083 DENSITY ALT 2000FT

Closest aviation forecast (TAF) to Ottawa / Carp Airport

Closest forecast is Ottawa Macdonald-Cartier International Airport, 14.9 nm (27.6 km) E.

2024/06/24 21:42 (retrieved 2 hours ago)

TAF CYOW 242040Z 2421/2518 34010G20KT P6SM FEW150 BECMG 2421/2423 34008KT FM242300 34008KT P6SM SCT060 BECMG 2502/2504 27006KT FM250600 28005KT P6SM FEW003 PROB30 2506/2511 1SM BR BKN003 FM251500 22012G22KT P6SM FEW040 RMK NXT FCST BY 250000Z